クライストチャーチ の空港の天気 - METARとTAF

クライストチャーチ国際空港 ( NZCH / CHC ) - ニュージーランド クライストチャーチ
飛行場実況気象(Metar)
観測時間08/09 05:00 NZST (08/08 17:00 UTC)
風向・風速北北西 1m/s
視程10km以上
天気現象
なし
気温-3℃
湿度100%
気圧1006hPa
METARNZCH 081700Z AUTO 34002KT 9999 NCD M03/M03 Q1006 NOSIG
過去の天気等 Google飛行場航空写真 Wunderground天気予報

過去48時間のMETAR

飛行場予報(TAF)
発表時間: 8/09 05:10 NZST (8/08 17:10 UTC)
予報対象時間: 9日6時 NZST ~ 10日6時 NZST
風向・風速西北西 4m/s
視程10km以上
なし
TAF NZCH 081710Z 0818/0918 30008KT CAVOK